createdAt,value
2024-01-20T00:00:38.895Z,98917.64
2024-01-20T00:03:06.092Z,98918.61
2024-01-20T00:05:32.853Z,98911.67
2024-01-20T00:07:59.785Z,98912.05
2024-01-20T00:10:26.882Z,98913.43
2024-01-20T00:12:53.695Z,98910.39
2024-01-20T00:15:20.616Z,98912.62
2024-01-20T00:17:49.082Z,98910.98
2024-01-20T00:20:16.033Z,98912.27
2024-01-20T00:22:44.090Z,98911.09
2024-01-20T00:25:11.668Z,98906.31
2024-01-20T00:27:39.508Z,98913.69
2024-01-20T00:30:08.089Z,98924.55
2024-01-20T00:32:35.282Z,98928.31
2024-01-20T00:35:07.869Z,98924.89
2024-01-20T00:37:37.818Z,98923.63
2024-01-20T00:40:06.572Z,98915.38
2024-01-20T00:42:33.558Z,98926.61
2024-01-20T00:45:00.749Z,98931.77
2024-01-20T00:47:27.959Z,98932.30
2024-01-20T00:49:54.867Z,98932.41
2024-01-20T00:52:22.211Z,98933.07
2024-01-20T00:54:51.166Z,98936.04
2024-01-20T00:57:18.259Z,98936.60
2024-01-20T00:59:46.782Z,98943.14
2024-01-20T01:02:16.945Z,98947.16
2024-01-20T01:04:44.146Z,98950.11
2024-01-20T01:07:11.290Z,98948.79
2024-01-20T01:09:38.166Z,98952.45
2024-01-20T01:12:05.575Z,98952.24
2024-01-20T01:14:32.437Z,98957.16
2024-01-20T01:16:59.282Z,98953.46
2024-01-20T01:19:26.285Z,98955.37
2024-01-20T01:21:53.267Z,98958.92
2024-01-20T01:24:20.095Z,98957.50
2024-01-20T01:26:47.010Z,98959.59
2024-01-20T01:29:14.156Z,98960.58
2024-01-20T01:31:41.101Z,98955.52
2024-01-20T01:34:08.021Z,98954.91
2024-01-20T01:36:34.843Z,98947.77
2024-01-20T01:39:01.827Z,98950.80
2024-01-20T01:41:28.714Z,98953.17
2024-01-20T01:43:55.616Z,98947.80
2024-01-20T01:46:22.653Z,98942.92
2024-01-20T01:48:49.595Z,98942.14
2024-01-20T01:51:16.579Z,98943.15
2024-01-20T01:53:44.177Z,98937.60
2024-01-20T01:56:12.406Z,98932.04
2024-01-20T01:58:39.641Z,98936.67
2024-01-20T02:01:06.886Z,98943.13
2024-01-20T02:03:34.122Z,98944.02
2024-01-20T02:06:01.233Z,98941.89
2024-01-20T02:08:28.630Z,98941.66
2024-01-20T02:10:56.163Z,98943.54
2024-01-20T02:13:23.351Z,98945.02
2024-01-20T02:15:50.550Z,98950.20
2024-01-20T02:18:17.478Z,98953.80
2024-01-20T02:20:44.438Z,98951.62
2024-01-20T02:23:11.229Z,98954.73
2024-01-20T02:25:38.231Z,98952.96
2024-01-20T02:28:05.220Z,98952.79
2024-01-20T02:30:32.145Z,98957.06
2024-01-20T02:32:59.451Z,98954.33
2024-01-20T02:35:26.681Z,98960.89
2024-01-20T02:37:53.511Z,98957.73
2024-01-20T02:40:20.356Z,98955.41
2024-01-20T02:42:47.218Z,98950.62
2024-01-20T02:45:14.092Z,98949.73
2024-01-20T02:47:40.959Z,98943.86
2024-01-20T02:50:08.759Z,98950.64
2024-01-20T02:52:35.549Z,98958.68
2024-01-20T02:55:02.650Z,98960.19
2024-01-20T02:57:29.974Z,98961.08
2024-01-20T02:59:56.880Z,98963.62
2024-01-20T03:02:25.057Z,98966.67
2024-01-20T03:04:52.033Z,98965.73
2024-01-20T03:07:19.285Z,98964.71
2024-01-20T03:09:46.043Z,98963.05
2024-01-20T03:12:13.464Z,98961.05
2024-01-20T03:14:40.260Z,98961.63
2024-01-20T03:17:07.168Z,98965.58
2024-01-20T03:19:34.048Z,98967.69
2024-01-20T03:22:00.828Z,98982.10
2024-01-20T03:24:28.058Z,98985.77
2024-01-20T03:26:59.469Z,98985.69
2024-01-20T03:29:26.732Z,98990.59
2024-01-20T03:31:53.794Z,98985.45
2024-01-20T03:34:21.818Z,98984.20
2024-01-20T03:36:49.197Z,98983.45
2024-01-20T03:39:16.165Z,98984.05
2024-01-20T03:41:43.047Z,98983.16
2024-01-20T03:44:10.087Z,98986.11
2024-01-20T03:46:36.925Z,98984.58
2024-01-20T03:49:04.379Z,98980.10
2024-01-20T03:51:31.486Z,98982.71
2024-01-20T03:53:58.272Z,98982.20
2024-01-20T03:56:25.094Z,98984.95
2024-01-20T03:58:51.834Z,98987.33
2024-01-20T04:01:18.595Z,98983.61
2024-01-20T04:03:45.717Z,98984.39
2024-01-20T04:06:12.673Z,98978.53
2024-01-20T04:08:39.470Z,98977.98
2024-01-20T04:11:06.621Z,98979.61
2024-01-20T04:13:33.465Z,98984.09
2024-01-20T04:16:00.267Z,98983.48
2024-01-20T04:18:27.230Z,98985.23
2024-01-20T04:20:54.142Z,98984.14
2024-01-20T04:23:20.974Z,98984.66
2024-01-20T04:25:48.915Z,98977.55
2024-01-20T04:28:15.740Z,98978.02
2024-01-20T04:30:42.504Z,98986.74
2024-01-20T04:33:09.719Z,98988.91
2024-01-20T04:35:36.613Z,98986.95
2024-01-20T04:38:03.445Z,98991.78
2024-01-20T04:40:30.521Z,98991.79
2024-01-20T04:42:57.281Z,98990.97
2024-01-20T04:45:24.117Z,98994.63
2024-01-20T04:47:51.028Z,99000.73
2024-01-20T04:50:17.836Z,99003.80
2024-01-20T04:52:44.688Z,99005.77
2024-01-20T04:55:11.528Z,99003.33
2024-01-20T04:57:38.268Z,99004.80
2024-01-20T05:00:07.062Z,99005.70
2024-01-20T05:02:36.924Z,98998.95
2024-01-20T05:05:04.672Z,98995.88
2024-01-20T05:07:31.989Z,98996.68
2024-01-20T05:09:59.135Z,98993.40
2024-01-20T05:12:26.779Z,98994.16
2024-01-20T05:14:54.482Z,99000.17
2024-01-20T05:17:21.360Z,99001.85
2024-01-20T05:19:48.829Z,99003.72
2024-01-20T05:22:17.638Z,99003.03
2024-01-20T05:24:44.659Z,99002.17
2024-01-20T05:27:12.376Z,98999.95
2024-01-20T05:29:39.210Z,99005.11
2024-01-20T05:32:06.529Z,99005.30
2024-01-20T05:34:33.530Z,99005.84
2024-01-20T05:37:00.550Z,99007.84
2024-01-20T05:39:27.494Z,99013.85
2024-01-20T05:41:54.505Z,99015.29
2024-01-20T05:44:21.469Z,99017.96
2024-01-20T05:46:48.362Z,99021.15
2024-01-20T05:49:15.556Z,99026.88
2024-01-20T05:51:42.454Z,99026.20
2024-01-20T05:54:09.879Z,99033.56
2024-01-20T05:56:36.789Z,99039.59
2024-01-20T05:59:04.079Z,99045.20
2024-01-20T06:01:31.223Z,99052.12
2024-01-20T06:03:58.023Z,99048.98
2024-01-20T06:06:24.840Z,99061.72
2024-01-20T06:08:51.677Z,99063.11
2024-01-20T06:11:18.521Z,99066.66
2024-01-20T06:13:45.358Z,99067.90
2024-01-20T06:16:14.389Z,99069.96
2024-01-20T06:18:41.208Z,99071.34
2024-01-20T06:21:09.483Z,99075.69
2024-01-20T06:23:37.125Z,99077.39
2024-01-20T06:26:04.413Z,99076.83
2024-01-20T06:28:31.533Z,99077.13
2024-01-20T06:30:58.423Z,99079.20
2024-01-20T06:33:25.357Z,99077.55
2024-01-20T06:35:52.418Z,99074.23
2024-01-20T06:38:19.177Z,99076.06
2024-01-20T06:40:45.900Z,99073.73
2024-01-20T06:43:12.585Z,99077.79
2024-01-20T06:45:39.404Z,99078.69
2024-01-20T06:48:06.787Z,99084.50
2024-01-20T06:50:33.769Z,99090.60
2024-01-20T06:53:00.591Z,99094.38
2024-01-20T06:55:27.387Z,99098.00
2024-01-20T06:57:54.180Z,99100.46
2024-01-20T07:00:21.241Z,99100.56
2024-01-20T07:02:47.973Z,99106.70
2024-01-20T07:05:14.904Z,99099.24
2024-01-20T07:07:42.580Z,99102.18
2024-01-20T07:10:10.452Z,99111.52
2024-01-20T07:12:37.938Z,99115.64
2024-01-20T07:15:07.226Z,99115.10
2024-01-20T07:17:35.889Z,99113.09
2024-01-20T07:20:02.933Z,99111.10
2024-01-20T07:22:30.218Z,99115.88
2024-01-20T07:24:59.835Z,99120.83
2024-01-20T07:27:26.867Z,99125.23
2024-01-20T07:29:54.151Z,99129.55
2024-01-20T07:32:20.929Z,99132.56
2024-01-20T07:34:47.883Z,99130.49
2024-01-20T07:37:16.442Z,99130.98
2024-01-20T07:39:43.956Z,99131.52
2024-01-20T07:42:11.980Z,99132.89
2024-01-20T07:44:39.333Z,99136.23
2024-01-20T07:47:06.080Z,99131.52
2024-01-20T07:49:33.347Z,99131.48
2024-01-20T07:52:00.227Z,99128.83
2024-01-20T07:54:27.160Z,99128.97
2024-01-20T07:56:53.951Z,99124.78
2024-01-20T07:59:20.729Z,99129.67
2024-01-20T08:01:48.028Z,99133.83
2024-01-20T08:04:16.986Z,99130.84
2024-01-20T08:06:44.005Z,99128.27
2024-01-20T08:09:11.660Z,99138.35
2024-01-20T08:11:38.576Z,99143.06
2024-01-20T08:14:05.533Z,99147.03
2024-01-20T08:16:32.402Z,99153.08
2024-01-20T08:18:59.236Z,99158.31
2024-01-20T08:21:26.641Z,99160.03
2024-01-20T08:23:53.492Z,99167.20
2024-01-20T08:26:20.321Z,99174.27
2024-01-20T08:28:47.329Z,99176.92
2024-01-20T08:31:14.166Z,99176.84
2024-01-20T08:33:41.459Z,99175.71
2024-01-20T08:36:09.372Z,99179.23
2024-01-20T08:38:36.658Z,99174.92
2024-01-20T08:41:10.889Z,99177.14
2024-01-20T08:43:42.533Z,99175.87
2024-01-20T08:46:10.282Z,99177.87
2024-01-20T08:48:38.314Z,99169.30
2024-01-20T08:51:05.473Z,99169.73
2024-01-20T08:53:33.968Z,99173.65
2024-01-20T08:56:02.438Z,99181.63
2024-01-20T08:58:29.232Z,99185.60
2024-01-20T09:00:56.900Z,99190.20
2024-01-20T09:03:24.150Z,99195.21
2024-01-20T09:05:51.066Z,99202.46
2024-01-20T09:08:17.968Z,99203.69
2024-01-20T09:10:44.986Z,99204.11
2024-01-20T09:13:11.790Z,99201.14
2024-01-20T09:15:38.818Z,99195.68
2024-01-20T09:18:05.923Z,99191.39
2024-01-20T09:20:32.984Z,99188.26
2024-01-20T09:22:59.945Z,99190.97
2024-01-20T09:25:27.083Z,99188.38
2024-01-20T09:27:53.848Z,99188.22
2024-01-20T09:30:21.157Z,99205.04
2024-01-20T09:32:48.160Z,99209.04
2024-01-20T09:35:14.988Z,99212.76
2024-01-20T09:37:41.837Z,99215.80
2024-01-20T09:40:10.435Z,99218.75
2024-01-20T09:42:37.689Z,99215.23
2024-01-20T09:45:05.835Z,99219.42
2024-01-20T09:47:33.077Z,99217.15
2024-01-20T09:50:00.042Z,99220.21
2024-01-20T09:52:29.119Z,99217.99
2024-01-20T09:55:09.967Z,99217.13
2024-01-20T09:57:38.211Z,99214.95
2024-01-20T10:00:06.629Z,99213.52
2024-01-20T10:02:36.053Z,99211.29
2024-01-20T10:05:08.252Z,99206.48
2024-01-20T10:07:34.973Z,99205.59
2024-01-20T10:10:01.979Z,99204.41
2024-01-20T10:12:28.878Z,99206.30
2024-01-20T10:14:55.984Z,99207.20
2024-01-20T10:17:23.231Z,99211.50
2024-01-20T10:19:49.996Z,99210.40
2024-01-20T10:22:17.329Z,99212.04
2024-01-20T10:24:54.358Z,99210.72
2024-01-20T10:27:24.621Z,99208.83
2024-01-20T10:29:51.778Z,99203.77
2024-01-20T10:32:19.335Z,99201.66
2024-01-20T10:34:46.271Z,99197.12
2024-01-20T10:37:15.266Z,99196.08
2024-01-20T10:39:46.646Z,99190.06
2024-01-20T10:42:17.082Z,99185.75
2024-01-20T10:44:54.407Z,99187.48
2024-01-20T10:47:39.405Z,99181.91
2024-01-20T10:50:08.381Z,99184.85
2024-01-20T10:52:39.730Z,99189.48
2024-01-20T10:55:06.763Z,99188.80
2024-01-20T10:57:34.032Z,99189.96
2024-01-20T11:00:02.709Z,99189.78
2024-01-20T11:02:29.817Z,99185.98
2024-01-20T11:04:56.860Z,99194.00
2024-01-20T11:07:24.994Z,99192.71
2024-01-20T11:09:58.506Z,99191.03
2024-01-20T11:12:27.290Z,99191.70
2024-01-20T11:14:59.235Z,99183.02
2024-01-20T11:17:26.305Z,99181.98
2024-01-20T11:19:53.161Z,99186.96
2024-01-20T11:22:49.724Z,99183.12
2024-01-20T11:25:18.769Z,99177.23
2024-01-20T11:27:52.969Z,99175.59
2024-01-20T11:30:28.010Z,99176.66
2024-01-20T11:32:56.502Z,99164.78
2024-01-20T11:35:23.611Z,99165.20
2024-01-20T11:37:51.189Z,99159.29
2024-01-20T11:40:18.103Z,99158.13
2024-01-20T11:42:45.526Z,99149.86
2024-01-20T11:45:13.076Z,99145.00
2024-01-20T11:47:40.866Z,99138.06
2024-01-20T11:50:08.505Z,99133.06
2024-01-20T11:52:35.647Z,99124.41
2024-01-20T11:55:03.163Z,99123.14
2024-01-20T11:57:32.957Z,99121.08
2024-01-20T11:59:59.960Z,99121.98
2024-01-20T12:02:29.158Z,99120.83
2024-01-20T12:05:01.862Z,99119.10
2024-01-20T12:07:31.815Z,99111.90
2024-01-20T12:09:58.597Z,99112.97
2024-01-20T12:12:26.640Z,99106.86
2024-01-20T12:14:53.390Z,99105.59
2024-01-20T12:17:23.523Z,99101.25
2024-01-20T12:19:50.640Z,99099.77
2024-01-20T12:22:17.740Z,99102.08
2024-01-20T12:24:48.357Z,99101.92
2024-01-20T12:27:16.647Z,99106.11
2024-01-20T12:29:43.755Z,99102.30
2024-01-20T12:32:11.466Z,99100.83
2024-01-20T12:34:38.426Z,99102.31
2024-01-20T12:37:07.470Z,99107.54
2024-01-20T12:39:35.495Z,99111.90
2024-01-20T12:42:02.303Z,99111.57
2024-01-20T12:44:29.349Z,99119.13
2024-01-20T12:46:56.316Z,99123.61
2024-01-20T12:49:23.165Z,99121.69
2024-01-20T12:51:50.032Z,99122.76
2024-01-20T12:54:17.429Z,99124.02
2024-01-20T12:56:46.485Z,99125.77
2024-01-20T12:59:13.713Z,99130.98
2024-01-20T13:01:40.775Z,99124.60
2024-01-20T13:04:07.692Z,99127.88
2024-01-20T13:06:34.527Z,99130.90
2024-01-20T13:09:01.474Z,99128.35
2024-01-20T13:11:29.500Z,99125.64
2024-01-20T13:13:57.583Z,99127.44
2024-01-20T13:16:24.364Z,99121.37
2024-01-20T13:18:53.520Z,99123.49
2024-01-20T13:21:20.661Z,99123.70
2024-01-20T13:23:47.840Z,99123.36
2024-01-20T13:26:14.494Z,99121.66
2024-01-20T13:28:41.382Z,99120.54
2024-01-20T13:31:08.217Z,99122.86
2024-01-20T13:33:35.190Z,99119.56
2024-01-20T13:36:02.038Z,99127.17
2024-01-20T13:38:28.799Z,99120.40
2024-01-20T13:40:55.485Z,99122.89
2024-01-20T13:43:22.572Z,99125.54
2024-01-20T13:45:49.496Z,99128.66
2024-01-20T13:48:16.484Z,99129.56
2024-01-20T13:50:43.762Z,99126.04
2024-01-20T13:53:10.450Z,99128.37
2024-01-20T13:55:38.442Z,99128.36
2024-01-20T13:58:05.365Z,99127.96
2024-01-20T14:00:32.105Z,99126.78
2024-01-20T14:02:58.952Z,99127.98
2024-01-20T14:05:25.800Z,99128.30
2024-01-20T14:07:52.481Z,99124.83
2024-01-20T14:10:19.268Z,99124.91
2024-01-20T14:12:46.086Z,99125.70
2024-01-20T14:15:12.932Z,99133.77
2024-01-20T14:17:40.146Z,99136.81
2024-01-20T14:20:08.207Z,99141.42
2024-01-20T14:22:34.849Z,99144.20
2024-01-20T14:25:05.542Z,99150.14
2024-01-20T14:27:34.359Z,99144.26
2024-01-20T14:30:01.157Z,99142.77
2024-01-20T14:35:08.535Z,99149.13
2024-01-20T14:37:35.239Z,99150.67
2024-01-20T14:40:02.566Z,99152.39
2024-01-20T14:42:29.693Z,99152.17
2024-01-20T14:44:56.440Z,99159.98
2024-01-20T14:47:24.420Z,99163.32
2024-01-20T14:49:51.656Z,99160.35
2024-01-20T14:52:18.445Z,99159.49
2024-01-20T14:54:45.163Z,99158.10
2024-01-20T14:57:12.345Z,99155.43
2024-01-20T14:59:39.183Z,99161.55
2024-01-20T15:02:08.590Z,99166.25
2024-01-20T15:04:36.134Z,99163.48
2024-01-20T15:07:05.098Z,99172.93
2024-01-20T15:09:32.827Z,99178.07
2024-01-20T15:11:59.758Z,99186.20
2024-01-20T15:14:26.477Z,99191.45
2024-01-20T15:16:53.170Z,99198.13
2024-01-20T15:19:20.035Z,99202.05
2024-01-20T15:21:46.698Z,99206.23
2024-01-20T15:24:13.427Z,99211.77
2024-01-20T15:26:41.515Z,99209.70
2024-01-20T15:29:10.805Z,99217.73
2024-01-20T15:31:37.755Z,99219.41
2024-01-20T15:34:04.768Z,99217.73
2024-01-20T15:36:31.737Z,99215.21
2024-01-20T15:38:58.528Z,99213.60
2024-01-20T15:41:25.475Z,99214.13
2024-01-20T15:43:52.162Z,99216.09
2024-01-20T15:46:18.833Z,99214.87
2024-01-20T15:48:45.697Z,99217.80
2024-01-20T15:51:12.813Z,99220.64
2024-01-20T15:53:42.259Z,99224.38
2024-01-20T15:56:11.421Z,99229.36
2024-01-20T15:58:41.294Z,99236.73
2024-01-20T16:01:08.069Z,99239.39
2024-01-20T16:03:35.007Z,99247.20
2024-01-20T16:06:02.011Z,99255.10
2024-01-20T16:08:28.889Z,99258.00
2024-01-20T16:10:55.622Z,99260.29
2024-01-20T16:13:22.390Z,99263.56
2024-01-20T16:15:49.239Z,99255.96
2024-01-20T16:18:16.676Z,99255.58
2024-01-20T16:20:43.718Z,99257.56
2024-01-20T16:23:10.836Z,99250.76
2024-01-20T16:25:38.251Z,99249.48
2024-01-20T16:28:05.286Z,99247.45
2024-01-20T16:30:33.290Z,99253.73
2024-01-20T16:33:00.118Z,99257.54
2024-01-20T16:35:26.767Z,99255.77
2024-01-20T16:37:53.452Z,99260.27
2024-01-20T16:40:20.253Z,99266.75
2024-01-20T16:42:47.052Z,99266.16
2024-01-20T16:45:13.913Z,99269.64
2024-01-20T16:47:41.186Z,99273.23
2024-01-20T16:50:08.102Z,99271.05
2024-01-20T16:52:34.751Z,99272.70
2024-01-20T16:55:14.439Z,99275.25
2024-01-20T16:57:42.882Z,99274.63
2024-01-20T17:00:11.847Z,99276.17
2024-01-20T17:02:38.516Z,99279.77
2024-01-20T17:05:05.500Z,99284.60
2024-01-20T17:07:32.603Z,99284.30
2024-01-20T17:09:59.364Z,99286.55
2024-01-20T17:12:26.085Z,99293.86
2024-01-20T17:14:52.938Z,99302.65
2024-01-20T17:17:19.664Z,99303.09
2024-01-20T17:19:46.639Z,99306.39
2024-01-20T17:22:13.790Z,99314.57
2024-01-20T17:24:40.519Z,99318.61
2024-01-20T17:27:07.243Z,99318.52
2024-01-20T17:29:34.092Z,99318.33
2024-01-20T17:32:05.229Z,99319.98
2024-01-20T17:34:33.872Z,99321.67
2024-01-20T17:37:01.125Z,99318.40
2024-01-20T17:39:29.661Z,99323.43
2024-01-20T17:41:58.922Z,99328.21
2024-01-20T17:44:25.892Z,99330.72
2024-01-20T17:46:54.754Z,99329.94
2024-01-20T17:49:22.614Z,99334.70
2024-01-20T17:51:49.607Z,99337.77
2024-01-20T17:54:16.682Z,99340.35
2024-01-20T17:56:43.622Z,99344.66
2024-01-20T17:59:10.596Z,99349.86
2024-01-20T18:01:38.042Z,99349.23
2024-01-20T18:04:05.285Z,99355.63
2024-01-20T18:06:33.261Z,99356.94
2024-01-20T18:09:00.497Z,99359.45
2024-01-20T18:11:27.574Z,99366.10
2024-01-20T18:13:55.320Z,99376.52
2024-01-20T18:16:22.315Z,99375.31
2024-01-20T18:18:49.122Z,99381.88
2024-01-20T18:21:17.054Z,99383.00
2024-01-20T18:23:44.007Z,99390.53
2024-01-20T18:26:10.788Z,99388.55
2024-01-20T18:28:37.640Z,99387.47
2024-01-20T18:31:08.769Z,99391.08
2024-01-20T18:33:37.043Z,99397.84
2024-01-20T18:36:04.826Z,99400.27
2024-01-20T18:38:32.653Z,99408.03
2024-01-20T18:41:29.391Z,99415.02
2024-01-20T18:43:56.600Z,99416.48
2024-01-20T18:46:32.493Z,99419.19
2024-01-20T18:48:59.369Z,99419.66
2024-01-20T18:51:26.185Z,99419.52
2024-01-20T18:53:53.313Z,99421.64
2024-01-20T18:56:20.209Z,99419.60
2024-01-20T18:58:47.250Z,99419.16
2024-01-20T19:01:14.500Z,99423.12
2024-01-20T19:03:42.041Z,99427.41
2024-01-20T19:06:09.258Z,99436.30
2024-01-20T19:08:38.434Z,99440.34
2024-01-20T19:11:17.621Z,99439.63
2024-01-20T19:13:44.434Z,99443.17
2024-01-20T19:16:11.957Z,99448.21
2024-01-20T19:18:47.469Z,99453.44
2024-01-20T19:21:14.669Z,99457.20
2024-01-20T19:23:56.017Z,99457.80
2024-01-20T19:26:22.831Z,99451.33
2024-01-20T19:28:49.641Z,99449.14
2024-01-20T19:31:16.589Z,99456.17
2024-01-20T19:33:48.360Z,99454.26
2024-01-20T19:36:17.923Z,99462.07
2024-01-20T19:38:44.708Z,99463.84
2024-01-20T19:41:11.577Z,99460.96
2024-01-20T19:43:39.514Z,99457.69
2024-01-20T19:46:06.543Z,99458.92
2024-01-20T19:48:37.307Z,99468.83
2024-01-20T19:51:05.307Z,99474.86
2024-01-20T19:53:32.131Z,99481.28
2024-01-20T19:55:59.052Z,99485.27
2024-01-20T19:58:26.892Z,99482.61
2024-01-20T20:00:53.769Z,99482.81
2024-01-20T20:03:21.010Z,99482.34
2024-01-20T20:05:47.946Z,99489.88
2024-01-20T20:08:16.143Z,99489.52
2024-01-20T20:10:45.685Z,99490.76
2024-01-20T20:13:12.468Z,99489.58
2024-01-20T20:15:39.332Z,99492.27
2024-01-20T20:18:06.786Z,99488.00
2024-01-20T20:20:33.674Z,99477.62
2024-01-20T20:23:00.399Z,99476.23
2024-01-20T20:25:27.133Z,99479.57
2024-01-20T20:27:54.017Z,99483.95
2024-01-20T20:30:20.878Z,99482.48
2024-01-20T20:32:48.226Z,99485.17
2024-01-20T20:35:15.757Z,99495.36
2024-01-20T20:37:42.566Z,99500.27
2024-01-20T20:40:11.296Z,99504.55
2024-01-20T20:42:38.203Z,99509.36
2024-01-20T20:45:08.702Z,99513.45
2024-01-20T20:47:36.857Z,99512.49
2024-01-20T20:50:05.376Z,99513.32
2024-01-20T20:52:32.657Z,99513.71
2024-01-20T20:54:59.439Z,99511.09
2024-01-20T20:57:26.724Z,99514.48
2024-01-20T20:59:53.612Z,99511.33
2024-01-20T21:02:22.813Z,99513.63
2024-01-20T21:04:50.489Z,99516.45
2024-01-20T21:07:19.275Z,99511.72
2024-01-20T21:09:46.953Z,99513.55
2024-01-20T21:12:13.901Z,99510.18
2024-01-20T21:14:40.872Z,99514.25
2024-01-20T21:17:10.754Z,99516.65
2024-01-20T21:19:37.424Z,99523.42
2024-01-20T21:22:04.508Z,99525.00
2024-01-20T21:24:32.832Z,99526.75
2024-01-20T21:27:00.240Z,99534.06
2024-01-20T21:29:26.911Z,99536.35
2024-01-20T21:31:53.706Z,99542.37
2024-01-20T21:34:20.463Z,99540.85
2024-01-20T21:36:47.608Z,99536.44
2024-01-20T21:39:14.839Z,99543.33
2024-01-20T21:41:41.526Z,99547.64
2024-01-20T21:44:08.614Z,99549.55
2024-01-20T21:46:37.008Z,99548.72
2024-01-20T21:49:05.489Z,99553.17
2024-01-20T21:51:32.554Z,99554.58
2024-01-20T21:53:59.309Z,99557.64
2024-01-20T21:56:26.095Z,99555.97
2024-01-20T21:58:53.473Z,99565.35
2024-01-20T22:01:20.370Z,99566.77
2024-01-20T22:06:15.681Z,99561.87
2024-01-20T22:08:42.905Z,99566.54
2024-01-20T22:11:09.772Z,99571.83
2024-01-20T22:13:36.963Z,99573.27
2024-01-20T22:16:03.943Z,99571.20
2024-01-20T22:18:30.827Z,99574.20
2024-01-20T22:20:58.725Z,99572.48
2024-01-20T22:23:25.582Z,99573.80
2024-01-20T22:25:52.469Z,99571.60
2024-01-20T22:28:19.304Z,99568.18
2024-01-20T22:30:46.167Z,99568.46
2024-01-20T22:33:13.124Z,99572.27
2024-01-20T22:35:40.058Z,99571.70
2024-01-20T22:38:06.937Z,99575.95
2024-01-20T22:40:33.897Z,99577.52
2024-01-20T22:43:00.758Z,99582.91
2024-01-20T22:45:27.642Z,99580.39
2024-01-20T22:47:54.549Z,99583.15
2024-01-20T22:50:21.429Z,99591.89
2024-01-20T22:52:49.459Z,99593.13
2024-01-20T22:55:17.960Z,99595.20
2024-01-20T22:57:45.032Z,99590.55
2024-01-20T23:00:14.403Z,99589.89
2024-01-20T23:02:42.797Z,99592.42
2024-01-20T23:05:10.339Z,99594.97
2024-01-20T23:07:39.308Z,99594.23
2024-01-20T23:10:06.465Z,99592.29
2024-01-20T23:12:33.312Z,99593.43
2024-01-20T23:15:00.630Z,99594.16
2024-01-20T23:17:27.419Z,99599.02
2024-01-20T23:19:54.420Z,99597.66
2024-01-20T23:22:21.307Z,99601.05
2024-01-20T23:24:48.233Z,99599.95
2024-01-20T23:27:15.201Z,99593.06
2024-01-20T23:29:42.522Z,99601.80
2024-01-20T23:32:09.738Z,99598.47
2024-01-20T23:34:36.586Z,99597.98
2024-01-20T23:37:03.758Z,99598.03
2024-01-20T23:39:30.598Z,99593.13
2024-01-20T23:41:57.428Z,99599.32
2024-01-20T23:44:24.299Z,99597.56
2024-01-20T23:46:52.931Z,99600.10
2024-01-20T23:49:19.939Z,99609.04
2024-01-20T23:51:47.000Z,99613.95
2024-01-20T23:54:13.930Z,99614.38
2024-01-20T23:56:40.768Z,99619.38
2024-01-20T23:59:09.379Z,99622.72
